createdAt,value
2014-07-15T00:00:02.828Z,101070
2014-07-15T00:00:21.047Z,101067
2014-07-15T00:00:38.642Z,101073
2014-07-15T00:00:56.861Z,101070
2014-07-15T00:01:15.095Z,101078
2014-07-15T00:01:32.689Z,101064
2014-07-15T00:01:50.910Z,101067
2014-07-15T00:02:09.129Z,101072
2014-07-15T00:02:27.363Z,101075
2014-07-15T00:02:44.959Z,101075
2014-07-15T00:03:02.553Z,101075
2014-07-15T00:03:20.771Z,101078
2014-07-15T00:03:38.365Z,101072
2014-07-15T00:03:56.726Z,101081
2014-07-15T00:04:14.320Z,101072
2014-07-15T00:04:31.898Z,101072
2014-07-15T00:04:50.135Z,101078
2014-07-15T00:05:08.353Z,101078
2014-07-15T00:05:26.572Z,101087
2014-07-15T00:05:44.307Z,101087
2014-07-15T00:06:01.277Z,101089
2014-07-15T00:06:19.496Z,101084
2014-07-15T00:06:37.090Z,101081
2014-07-15T00:06:54.701Z,101087
2014-07-15T00:07:12.920Z,101084
2014-07-15T00:07:31.139Z,101081
2014-07-15T00:07:48.107Z,101081
2014-07-15T00:08:06.328Z,101092
2014-07-15T00:08:24.547Z,101087
2014-07-15T00:08:42.766Z,101081
2014-07-15T00:09:01.002Z,101093
2014-07-15T00:09:18.596Z,101084
2014-07-15T00:09:36.815Z,101087
2014-07-15T00:09:53.783Z,101081
2014-07-15T00:10:11.379Z,101084
2014-07-15T00:10:28.973Z,101090
2014-07-15T00:10:47.192Z,101087
2014-07-15T00:11:04.787Z,101090
2014-07-15T00:11:21.756Z,101084
2014-07-15T00:11:39.350Z,101087
2014-07-15T00:11:57.569Z,101075
2014-07-15T00:12:15.164Z,101092
2014-07-15T00:12:32.774Z,101095
2014-07-15T00:12:50.367Z,101095
2014-07-15T00:13:07.963Z,101092
2014-07-15T00:13:26.307Z,101084
2014-07-15T00:13:44.541Z,101084
2014-07-15T00:14:02.135Z,101084
2014-07-15T00:14:19.106Z,101093
2014-07-15T00:14:37.325Z,101090
2014-07-15T00:14:55.559Z,101087
2014-07-15T00:15:13.905Z,101090
2014-07-15T00:15:32.139Z,101100
2014-07-15T00:15:50.358Z,101095
2014-07-15T00:16:08.577Z,101092
2014-07-15T00:16:26.813Z,101100
2014-07-15T00:16:45.032Z,101092
2014-07-15T00:17:03.250Z,101095
2014-07-15T00:17:20.846Z,101095
2014-07-15T00:17:39.065Z,101092
2014-07-15T00:17:56.674Z,101092
2014-07-15T00:18:14.893Z,101092
2014-07-15T00:18:32.489Z,101093
2014-07-15T00:18:50.083Z,101100
2014-07-15T00:19:08.301Z,101092
2014-07-15T00:19:26.522Z,101100
2014-07-15T00:19:43.491Z,101103
2014-07-15T00:20:01.085Z,101095
2014-07-15T00:20:18.678Z,101087
2014-07-15T00:20:36.915Z,101095
2014-07-15T00:20:55.133Z,101095
2014-07-15T00:21:12.102Z,101092
2014-07-15T00:21:29.198Z,101100
2014-07-15T00:21:46.792Z,101100
2014-07-15T00:22:03.760Z,101092
2014-07-15T00:22:22.339Z,101100
2014-07-15T00:22:39.934Z,101100
2014-07-15T00:22:57.528Z,101108
2014-07-15T00:23:15.747Z,101092
2014-07-15T00:23:33.966Z,101086
2014-07-15T00:23:52.202Z,101095
2014-07-15T00:24:09.796Z,101106
2014-07-15T00:24:27.389Z,101100
2014-07-15T00:24:44.985Z,101108
2014-07-15T00:25:03.204Z,101103
2014-07-15T00:25:19.673Z,101106
2014-07-15T00:25:37.282Z,101106
2014-07-15T00:25:55.503Z,101108
2014-07-15T00:26:12.472Z,101100
2014-07-15T00:26:30.831Z,101103
2014-07-15T00:26:47.802Z,101103
2014-07-15T00:27:05.536Z,101108
2014-07-15T00:27:22.630Z,101103
2014-07-15T00:27:40.864Z,101103
2014-07-15T00:27:57.835Z,101105
2014-07-15T00:28:16.194Z,101111
2014-07-15T00:28:34.413Z,101114
2014-07-15T00:28:52.634Z,101105
2014-07-15T00:29:10.353Z,101108
2014-07-15T00:29:28.587Z,101105
2014-07-15T00:29:46.181Z,101102
2014-07-15T00:30:04.401Z,101100
2014-07-15T00:30:21.355Z,101105
2014-07-15T00:30:38.323Z,101092
2014-07-15T00:30:55.294Z,101102
2014-07-15T00:31:12.888Z,101111
2014-07-15T00:31:31.107Z,101095
2014-07-15T00:31:49.325Z,101095
2014-07-15T00:32:07.546Z,101092
2014-07-15T00:32:25.765Z,101089
2014-07-15T00:32:43.984Z,101095
2014-07-15T00:33:02.204Z,101095
2014-07-15T00:33:20.439Z,101095
2014-07-15T00:33:38.032Z,101095
2014-07-15T00:33:55.611Z,101095
2014-07-15T00:34:12.581Z,101083
2014-07-15T00:34:30.175Z,101092
2014-07-15T00:34:48.394Z,101089
2014-07-15T00:35:05.990Z,101095
2014-07-15T00:35:24.224Z,101095
2014-07-15T00:35:41.818Z,101089
2014-07-15T00:35:59.411Z,101092
2014-07-15T00:36:17.632Z,101092
2014-07-15T00:36:35.851Z,101095
2014-07-15T00:36:53.445Z,101095
2014-07-15T00:37:11.665Z,101089
2014-07-15T00:37:28.634Z,101102
2014-07-15T00:37:46.228Z,101102
2014-07-15T00:38:03.822Z,101103
2014-07-15T00:38:20.792Z,101095
2014-07-15T00:38:39.011Z,101100
2014-07-15T00:38:57.355Z,101105
2014-07-15T00:39:14.466Z,101092
2014-07-15T00:39:32.685Z,101103
2014-07-15T00:39:50.279Z,101099
2014-07-15T00:40:07.873Z,101099
2014-07-15T00:40:25.484Z,101114
2014-07-15T00:40:43.703Z,101095
2014-07-15T00:41:01.921Z,101105
2014-07-15T00:41:18.892Z,101102
2014-07-15T00:41:36.486Z,101102
2014-07-15T00:41:54.705Z,101100
2014-07-15T00:42:13.048Z,101108
2014-07-15T00:42:31.285Z,101108
2014-07-15T00:42:49.629Z,101108
2014-07-15T00:43:07.238Z,101100
2014-07-15T00:43:25.459Z,101105
2014-07-15T00:43:43.677Z,101105
2014-07-15T00:44:01.271Z,101095
2014-07-15T00:44:18.849Z,101108
2014-07-15T00:44:37.086Z,101108
2014-07-15T00:44:55.304Z,101102
2014-07-15T00:45:12.898Z,101102
2014-07-15T00:45:31.260Z,101111
2014-07-15T00:45:49.478Z,101102
2014-07-15T00:46:07.697Z,101114
2014-07-15T00:46:24.806Z,101108
2014-07-15T00:46:43.027Z,101111
2014-07-15T00:47:00.621Z,101114
2014-07-15T00:47:17.715Z,101108
2014-07-15T00:47:35.951Z,101108
2014-07-15T00:47:53.545Z,101114
2014-07-15T00:48:11.139Z,101111
2014-07-15T00:48:29.482Z,101111
2014-07-15T00:48:45.828Z,101105
2014-07-15T00:49:02.797Z,101105
2014-07-15T00:49:21.016Z,101105
2014-07-15T00:49:39.252Z,101108
2014-07-15T00:49:57.471Z,101114
2014-07-15T00:50:15.689Z,101105
2014-07-15T00:50:33.283Z,101105
2014-07-15T00:50:51.629Z,101105
2014-07-15T00:51:07.973Z,101111
2014-07-15T00:51:26.191Z,101105
2014-07-15T00:51:44.428Z,101091
2014-07-15T00:52:01.397Z,101108
2014-07-15T00:52:18.990Z,101102
2014-07-15T00:52:36.584Z,101099
2014-07-15T00:52:54.805Z,101114
2014-07-15T00:53:13.039Z,101105
2014-07-15T00:53:29.383Z,101111
2014-07-15T00:53:46.354Z,101105
2014-07-15T00:54:04.572Z,101099
2014-07-15T00:54:21.541Z,101105
2014-07-15T00:54:39.760Z,101105
2014-07-15T00:54:57.356Z,101114
2014-07-15T00:55:15.574Z,101108
2014-07-15T00:55:33.793Z,101102
2014-07-15T00:55:51.405Z,101108
2014-07-15T00:56:09.623Z,101108
2014-07-15T00:56:27.842Z,101102
2014-07-15T00:56:46.061Z,101111
2014-07-15T00:57:03.047Z,101111
2014-07-15T00:57:20.641Z,101105
2014-07-15T00:57:38.860Z,101111
2014-07-15T00:57:56.455Z,101108
2014-07-15T00:58:14.674Z,101099
2014-07-15T00:58:32.909Z,101105
2014-07-15T00:58:51.252Z,101102
2014-07-15T00:59:09.489Z,101111
2014-07-15T00:59:27.082Z,101105
2014-07-15T00:59:44.036Z,101108
2014-07-15T01:00:02.256Z,101102
2014-07-15T01:00:20.491Z,101102
2014-07-15T01:00:38.709Z,101105
2014-07-15T01:00:56.928Z,101111
2014-07-15T01:01:14.524Z,101108
2014-07-15T01:01:32.118Z,101108
2014-07-15T01:01:49.711Z,101102
2014-07-15T01:02:07.307Z,101114
2014-07-15T01:02:25.542Z,101114
2014-07-15T01:02:43.120Z,101117
2014-07-15T01:03:01.354Z,101114
2014-07-15T01:03:19.575Z,101105
2014-07-15T01:03:37.794Z,101123
2014-07-15T01:03:55.403Z,101122
2014-07-15T01:04:13.624Z,101117
2014-07-15T01:04:31.858Z,101117
2014-07-15T01:04:49.452Z,101111
2014-07-15T01:05:06.421Z,101119
2014-07-15T01:05:24.641Z,101119
2014-07-15T01:05:43.001Z,101117
2014-07-15T01:06:00.594Z,101117
2014-07-15T01:06:18.815Z,101125
2014-07-15T01:06:36.409Z,101117
2014-07-15T01:06:54.643Z,101122
2014-07-15T01:07:12.237Z,101120
2014-07-15T01:07:29.833Z,101128
2014-07-15T01:07:46.802Z,101119
2014-07-15T01:08:04.395Z,101122
2014-07-15T01:08:22.616Z,101125
2014-07-15T01:08:40.225Z,101122
2014-07-15T01:08:58.444Z,101119
2014-07-15T01:09:16.038Z,101125
2014-07-15T01:09:33.134Z,101122
2014-07-15T01:09:50.759Z,101122
2014-07-15T01:10:08.337Z,101122
2014-07-15T01:10:25.933Z,101122
2014-07-15T01:10:42.901Z,101134
2014-07-15T01:11:00.495Z,101128
2014-07-15T01:11:18.089Z,101131
2014-07-15T01:11:35.686Z,101122
2014-07-15T01:11:53.904Z,101125
2014-07-15T01:12:11.498Z,101134
2014-07-15T01:12:29.717Z,101137
2014-07-15T01:12:46.687Z,101128
2014-07-15T01:13:04.905Z,101137
2014-07-15T01:13:23.124Z,101131
2014-07-15T01:13:40.735Z,101125
2014-07-15T01:13:58.329Z,101134
2014-07-15T01:14:15.923Z,101137
2014-07-15T01:14:34.142Z,101134
2014-07-15T01:14:51.112Z,101134
2014-07-15T01:15:08.706Z,101137
2014-07-15T01:15:26.925Z,101142
2014-07-15T01:15:44.519Z,101137
2014-07-15T01:16:02.739Z,101128
2014-07-15T01:16:20.958Z,101139
2014-07-15T01:16:39.193Z,101137
2014-07-15T01:16:57.429Z,101134
2014-07-15T01:17:14.523Z,101142
2014-07-15T01:17:32.757Z,101137
2014-07-15T01:17:50.351Z,101142
2014-07-15T01:18:08.572Z,101140
2014-07-15T01:18:26.790Z,101140
2014-07-15T01:18:44.384Z,101137
2014-07-15T01:19:02.606Z,101131
2014-07-15T01:19:20.200Z,101137
2014-07-15T01:19:38.559Z,101140
2014-07-15T01:19:56.778Z,101137
2014-07-15T01:20:14.998Z,101134
2014-07-15T01:20:33.233Z,101145
2014-07-15T01:20:50.827Z,101145
2014-07-15T01:21:09.062Z,101143
2014-07-15T01:21:27.281Z,101140
2014-07-15T01:21:45.515Z,101134
2014-07-15T01:22:03.734Z,101145
2014-07-15T01:22:21.956Z,101143
2014-07-15T01:22:40.190Z,101137
2014-07-15T01:22:57.768Z,101145
2014-07-15T01:23:14.739Z,101140
2014-07-15T01:23:32.333Z,101143
2014-07-15T01:23:50.551Z,101140
2014-07-15T01:24:08.786Z,101134
2014-07-15T01:24:26.380Z,101145
2014-07-15T01:24:44.599Z,101151
2014-07-15T01:25:01.568Z,101151
2014-07-15T01:25:19.790Z,101145
2014-07-15T01:25:37.383Z,101151
2014-07-15T01:25:54.352Z,101145
2014-07-15T01:26:12.571Z,101148
2014-07-15T01:26:30.815Z,101146
2014-07-15T01:26:49.034Z,101148
2014-07-15T01:27:07.253Z,101146
2014-07-15T01:27:25.519Z,101146
2014-07-15T01:27:43.737Z,101148
2014-07-15T01:28:01.347Z,101145
2014-07-15T01:28:18.440Z,101148
2014-07-15T01:28:36.702Z,101151
2014-07-15T01:28:54.296Z,101142
2014-07-15T01:29:11.890Z,101148
2014-07-15T01:29:30.153Z,101148
2014-07-15T01:29:47.138Z,101145
2014-07-15T01:30:04.107Z,101151
2014-07-15T01:30:22.325Z,101151
2014-07-15T01:30:39.969Z,101142
2014-07-15T01:30:57.563Z,101160
2014-07-15T01:31:15.172Z,101145
2014-07-15T01:31:33.391Z,101154
2014-07-15T01:31:50.388Z,101151
2014-07-15T01:32:08.606Z,101145
2014-07-15T01:32:26.825Z,101157
2014-07-15T01:32:45.079Z,101157
2014-07-15T01:33:03.297Z,101154
2014-07-15T01:33:20.891Z,101160
2014-07-15T01:33:38.000Z,101160
2014-07-15T01:33:55.609Z,101154
2014-07-15T01:34:13.828Z,101157
2014-07-15T01:34:30.797Z,101164
2014-07-15T01:34:47.924Z,101162
2014-07-15T01:35:06.143Z,101162
2014-07-15T01:35:23.237Z,101154
2014-07-15T01:35:40.830Z,101160
2014-07-15T01:35:59.066Z,101162
2014-07-15T01:36:17.300Z,101160
2014-07-15T01:36:34.894Z,101160
2014-07-15T01:36:52.498Z,101163
2014-07-15T01:37:10.092Z,101157
2014-07-15T01:37:28.310Z,101162
2014-07-15T01:37:46.529Z,101160
2014-07-15T01:38:03.505Z,101154
2014-07-15T01:38:21.724Z,101154
2014-07-15T01:38:39.317Z,101160
2014-07-15T01:38:57.543Z,101157
2014-07-15T01:39:15.762Z,101157
2014-07-15T01:39:33.356Z,101162
2014-07-15T01:39:50.949Z,101156
2014-07-15T01:40:09.192Z,101157
2014-07-15T01:40:27.411Z,101162
2014-07-15T01:40:45.629Z,101167
2014-07-15T01:41:03.229Z,101170
2014-07-15T01:41:21.448Z,101167
2014-07-15T01:41:39.042Z,101160
2014-07-15T01:41:57.260Z,101167
2014-07-15T01:42:14.234Z,101164
2014-07-15T01:42:32.453Z,101164
2014-07-15T01:42:50.047Z,101162
2014-07-15T01:43:08.269Z,101167
2014-07-15T01:43:26.504Z,101162
2014-07-15T01:43:44.738Z,101160
2014-07-15T01:44:03.097Z,101160
2014-07-15T01:44:20.680Z,101160
2014-07-15T01:44:39.039Z,101164
2014-07-15T01:44:56.633Z,101162
2014-07-15T01:45:14.230Z,101160
2014-07-15T01:45:32.465Z,101164
2014-07-15T01:45:50.059Z,101164
2014-07-15T01:46:08.280Z,101164
2014-07-15T01:46:25.874Z,101167
2014-07-15T01:46:42.843Z,101164
2014-07-15T01:47:01.062Z,101162
2014-07-15T01:47:18.659Z,101170
2014-07-15T01:47:36.894Z,101162
2014-07-15T01:47:55.112Z,101167
2014-07-15T01:48:13.331Z,101162
2014-07-15T01:48:30.303Z,101170
2014-07-15T01:48:47.272Z,101167
2014-07-15T01:49:05.490Z,101167
2014-07-15T01:49:23.086Z,101167
2014-07-15T01:49:40.680Z,101164
2014-07-15T01:49:58.274Z,101162
2014-07-15T01:50:16.492Z,101164
2014-07-15T01:50:34.089Z,101164
2014-07-15T01:50:52.308Z,101170
2014-07-15T01:51:09.902Z,101164
2014-07-15T01:51:28.139Z,101170
2014-07-15T01:51:46.358Z,101173
2014-07-15T01:52:04.577Z,101176
2014-07-15T01:52:21.545Z,101162
2014-07-15T01:52:39.782Z,101164
2014-07-15T01:52:58.000Z,101167
2014-07-15T01:53:16.219Z,101173
2014-07-15T01:53:34.457Z,101170
2014-07-15T01:53:52.675Z,101164
2014-07-15T01:54:09.785Z,101167
2014-07-15T01:54:27.363Z,101164
2014-07-15T01:54:44.959Z,101167
2014-07-15T01:55:03.193Z,101164
2014-07-15T01:55:21.412Z,101170
2014-07-15T01:55:39.008Z,101164
2014-07-15T01:55:55.962Z,101159
2014-07-15T01:56:13.696Z,101173
2014-07-15T01:56:31.915Z,101173
2014-07-15T01:56:50.151Z,101162
2014-07-15T01:57:07.745Z,101167
2014-07-15T01:57:26.089Z,101164
2014-07-15T01:57:44.325Z,101167
2014-07-15T01:58:01.294Z,101164
2014-07-15T01:58:19.512Z,101167
2014-07-15T01:58:37.731Z,101159
2014-07-15T01:58:55.952Z,101167
2014-07-15T01:59:13.546Z,101167
2014-07-15T01:59:31.780Z,101173
2014-07-15T01:59:50.001Z,101170
2014-07-15T02:00:07.595Z,101164
2014-07-15T02:00:23.923Z,101173
2014-07-15T02:00:41.532Z,101167
2014-07-15T02:00:59.128Z,101164
2014-07-15T02:01:16.847Z,101181
2014-07-15T02:01:35.065Z,101164
2014-07-15T02:01:52.659Z,101173
2014-07-15T02:02:10.255Z,101173
2014-07-15T02:02:26.599Z,101167
2014-07-15T02:02:44.817Z,101173
2014-07-15T02:03:03.037Z,101175
2014-07-15T02:03:20.646Z,101170
2014-07-15T02:03:38.225Z,101173
2014-07-15T02:03:56.475Z,101175
2014-07-15T02:04:14.695Z,101178
2014-07-15T02:04:32.914Z,101173
2014-07-15T02:04:51.148Z,101173
2014-07-15T02:05:08.744Z,101176
2014-07-15T02:05:26.963Z,101187
2014-07-15T02:05:44.557Z,101181
2014-07-15T02:06:02.150Z,101178
2014-07-15T02:06:19.121Z,101178
2014-07-15T02:06:36.231Z,101187
2014-07-15T02:06:53.824Z,101184
2014-07-15T02:07:11.420Z,101193
2014-07-15T02:07:29.639Z,101181
2014-07-15T02:07:47.233Z,101178
2014-07-15T02:08:05.467Z,101181
2014-07-15T02:08:23.688Z,101184
2014-07-15T02:08:41.906Z,101176
2014-07-15T02:09:00.125Z,101176
2014-07-15T02:09:17.738Z,101176
2014-07-15T02:09:35.331Z,101181
2014-07-15T02:09:53.550Z,101190
2014-07-15T02:10:11.784Z,101179
2014-07-15T02:10:30.005Z,101184
2014-07-15T02:10:47.599Z,101187
2014-07-15T02:11:05.193Z,101184
2014-07-15T02:11:22.788Z,101184
2014-07-15T02:11:41.023Z,101184
2014-07-15T02:11:59.242Z,101187
2014-07-15T02:12:16.835Z,101181
2014-07-15T02:12:35.055Z,101190
2014-07-15T02:12:53.274Z,101181
2014-07-15T02:13:11.493Z,101187
2014-07-15T02:13:29.730Z,101178
2014-07-15T02:13:47.949Z,101187
2014-07-15T02:14:05.542Z,101193
2014-07-15T02:14:23.277Z,101187
2014-07-15T02:14:40.248Z,101187
2014-07-15T02:14:58.466Z,101187
2014-07-15T02:15:16.060Z,101190
2014-07-15T02:15:33.656Z,101190
2014-07-15T02:15:51.250Z,101195
2014-07-15T02:16:09.484Z,101184
2014-07-15T02:16:27.078Z,101190
2014-07-15T02:16:45.439Z,101190
2014-07-15T02:17:03.033Z,101190
2014-07-15T02:17:20.627Z,101190
2014-07-15T02:17:38.363Z,101187
2014-07-15T02:17:56.582Z,101196
2014-07-15T02:18:13.550Z,101196
2014-07-15T02:18:31.144Z,101184
2014-07-15T02:18:48.756Z,101193
2014-07-15T02:19:06.474Z,101193
2014-07-15T02:19:24.693Z,101190
2014-07-15T02:19:41.677Z,101184
2014-07-15T02:19:59.257Z,101198
2014-07-15T02:20:16.991Z,101201
2014-07-15T02:20:35.210Z,101193
2014-07-15T02:20:52.806Z,101196
2014-07-15T02:21:10.400Z,101196
2014-07-15T02:21:27.994Z,101193
2014-07-15T02:21:45.603Z,101198
2014-07-15T02:22:03.824Z,101201
2014-07-15T02:22:22.043Z,101204
2014-07-15T02:22:39.637Z,101207
2014-07-15T02:22:57.232Z,101204
2014-07-15T02:23:15.467Z,101201
2014-07-15T02:23:32.420Z,101207
2014-07-15T02:23:50.029Z,101207
2014-07-15T02:24:07.608Z,101207
2014-07-15T02:24:25.843Z,101195
2014-07-15T02:24:43.436Z,101204
2014-07-15T02:25:01.658Z,101201
2014-07-15T02:25:19.268Z,101204
2014-07-15T02:25:36.986Z,101207
2014-07-15T02:25:55.221Z,101207
2014-07-15T02:26:11.565Z,101195
2014-07-15T02:26:29.784Z,101201
2014-07-15T02:26:48.144Z,101207
2014-07-15T02:27:06.365Z,101201
2014-07-15T02:27:23.959Z,101213
2014-07-15T02:27:42.178Z,101207
2014-07-15T02:27:59.772Z,101198
2014-07-15T02:28:18.008Z,101195
2014-07-15T02:28:35.602Z,101207
2014-07-15T02:28:53.820Z,101201
2014-07-15T02:29:11.416Z,101204
2014-07-15T02:29:29.635Z,101198
2014-07-15T02:29:47.229Z,101201
2014-07-15T02:30:05.463Z,101204
2014-07-15T02:30:23.683Z,101204
2014-07-15T02:30:42.042Z,101207
2014-07-15T02:31:00.261Z,101204
2014-07-15T02:31:17.233Z,101198
2014-07-15T02:31:34.826Z,101201
2014-07-15T02:31:53.045Z,101207
2014-07-15T02:32:11.264Z,101213
2014-07-15T02:32:29.485Z,101204
2014-07-15T02:32:47.078Z,101204
2014-07-15T02:33:04.672Z,101207
2014-07-15T02:33:22.893Z,101204
2014-07-15T02:33:41.112Z,101207
2014-07-15T02:33:58.705Z,101201
2014-07-15T02:34:15.049Z,101201
2014-07-15T02:34:33.270Z,101210
2014-07-15T02:34:51.504Z,101201
2014-07-15T02:35:08.473Z,101207
2014-07-15T02:35:26.694Z,101204
2014-07-15T02:35:44.913Z,101201
2014-07-15T02:36:01.881Z,101201
2014-07-15T02:36:20.100Z,101210
2014-07-15T02:36:37.711Z,101201
2014-07-15T02:36:55.930Z,101210
2014-07-15T02:37:13.524Z,101198
2014-07-15T02:37:31.260Z,101204
2014-07-15T02:37:49.479Z,101207
2014-07-15T02:38:07.698Z,101198
2014-07-15T02:38:25.932Z,101204
2014-07-15T02:38:44.153Z,101207
2014-07-15T02:39:02.372Z,101207
2014-07-15T02:39:20.590Z,101215
2014-07-15T02:39:38.186Z,101207
2014-07-15T02:39:56.421Z,101204
2014-07-15T02:40:14.014Z,101201
2014-07-15T02:40:30.983Z,101204
2014-07-15T02:40:49.204Z,101204
2014-07-15T02:41:06.798Z,101207
2014-07-15T02:41:24.516Z,101209
2014-07-15T02:41:42.112Z,101204
2014-07-15T02:42:00.331Z,101209
2014-07-15T02:42:18.565Z,101204
2014-07-15T02:42:36.925Z,101204
2014-07-15T02:42:55.145Z,101209
2014-07-15T02:43:13.364Z,101207
2014-07-15T02:43:31.583Z,101201
2014-07-15T02:43:49.804Z,101207
2014-07-15T02:44:08.038Z,101209
2014-07-15T02:44:25.007Z,101209
2014-07-15T02:44:42.600Z,101201
2014-07-15T02:45:00.196Z,101204
2014-07-15T02:45:18.415Z,101209
2014-07-15T02:45:35.384Z,101209
2014-07-15T02:45:52.979Z,101204
2014-07-15T02:46:10.558Z,101209
2014-07-15T02:46:28.792Z,101215
2014-07-15T02:46:47.011Z,101198
2014-07-15T02:47:04.106Z,101218
2014-07-15T02:47:21.716Z,101207
2014-07-15T02:47:39.935Z,101215
2014-07-15T02:47:57.530Z,101215
2014-07-15T02:48:15.140Z,101215
2014-07-15T02:48:31.483Z,101215
2014-07-15T02:48:49.093Z,101215
2014-07-15T02:49:07.329Z,101209
2014-07-15T02:49:25.689Z,101212
2014-07-15T02:49:42.657Z,101209
2014-07-15T02:50:00.251Z,101215
2014-07-15T02:50:17.847Z,101221
2014-07-15T02:50:34.816Z,101209
2014-07-15T02:50:52.409Z,101215
2014-07-15T02:51:10.005Z,101215
2014-07-15T02:51:28.239Z,101218
2014-07-15T02:51:46.458Z,101206
2014-07-15T02:52:03.443Z,101209
2014-07-15T02:52:21.663Z,101209
2014-07-15T02:52:39.882Z,101209
2014-07-15T02:52:57.491Z,101212
2014-07-15T02:53:15.087Z,101215
2014-07-15T02:53:33.306Z,101212
2014-07-15T02:53:50.275Z,101207
2014-07-15T02:54:08.509Z,101210
2014-07-15T02:54:26.105Z,101218
2014-07-15T02:54:44.339Z,101213
2014-07-15T02:55:01.933Z,101213
2014-07-15T02:55:19.529Z,101221
2014-07-15T02:55:37.747Z,101213
2014-07-15T02:55:55.341Z,101216
2014-07-15T02:56:13.576Z,101213
2014-07-15T02:56:31.796Z,101210
2014-07-15T02:56:50.031Z,101216
2014-07-15T02:57:08.249Z,101207
2014-07-15T02:57:26.486Z,101210
2014-07-15T02:57:44.705Z,101204
2014-07-15T02:58:02.939Z,101207
2014-07-15T02:58:20.533Z,101210
2014-07-15T02:58:38.128Z,101213
2014-07-15T02:58:56.363Z,101213
2014-07-15T02:59:13.316Z,101218
2014-07-15T02:59:30.927Z,101213
2014-07-15T02:59:48.537Z,101221
2014-07-15T03:00:05.505Z,101210
2014-07-15T03:00:23.099Z,101207
2014-07-15T03:00:39.446Z,101207
2014-07-15T03:00:57.680Z,101215
2014-07-15T03:01:15.274Z,101207
2014-07-15T03:01:33.493Z,101212
2014-07-15T03:01:51.729Z,101218
2014-07-15T03:02:09.948Z,101212
2014-07-15T03:02:27.542Z,101218
2014-07-15T03:02:45.777Z,101215
2014-07-15T03:03:03.371Z,101212
2014-07-15T03:03:20.980Z,101215
2014-07-15T03:03:39.199Z,101218
2014-07-15T03:03:57.420Z,101204
2014-07-15T03:04:15.013Z,101210
2014-07-15T03:04:33.248Z,101212
2014-07-15T03:04:50.219Z,101221
2014-07-15T03:05:07.812Z,101215
2014-07-15T03:05:26.047Z,101218
2014-07-15T03:05:43.640Z,101210
2014-07-15T03:06:01.862Z,101218
2014-07-15T03:06:19.472Z,101212
2014-07-15T03:06:37.690Z,101218
2014-07-15T03:06:55.317Z,101218
2014-07-15T03:07:13.520Z,101215
2014-07-15T03:07:31.755Z,101218
2014-07-15T03:07:48.724Z,101212
2014-07-15T03:08:06.335Z,101218
2014-07-15T03:08:24.554Z,101218
2014-07-15T03:08:42.788Z,101218
2014-07-15T03:09:00.384Z,101212
2014-07-15T03:09:18.603Z,101224
2014-07-15T03:09:36.196Z,101215
2014-07-15T03:09:54.415Z,101215
2014-07-15T03:10:12.650Z,101218
2014-07-15T03:10:30.869Z,101215
2014-07-15T03:10:49.244Z,101218
2014-07-15T03:11:07.607Z,101215
2014-07-15T03:11:25.200Z,101215
2014-07-15T03:11:42.794Z,101207
2014-07-15T03:12:01.013Z,101210
2014-07-15T03:12:19.248Z,101212
2014-07-15T03:12:36.842Z,101218
2014-07-15T03:12:54.436Z,101218
2014-07-15T03:13:12.656Z,101218
2014-07-15T03:13:30.891Z,101212
2014-07-15T03:13:49.250Z,101218
2014-07-15T03:14:06.844Z,101215
2014-07-15T03:14:24.440Z,101221
2014-07-15T03:14:42.658Z,101227
2014-07-15T03:15:00.893Z,101218
2014-07-15T03:15:17.865Z,101221
2014-07-15T03:15:35.474Z,101221
2014-07-15T03:15:53.693Z,101221
2014-07-15T03:16:11.286Z,101224
2014-07-15T03:16:29.523Z,101221
2014-07-15T03:16:47.742Z,101224
2014-07-15T03:17:05.351Z,101221
2014-07-15T03:17:22.947Z,101221
2014-07-15T03:17:41.165Z,101218
2014-07-15T03:17:59.400Z,101224
2014-07-15T03:18:17.619Z,101224
2014-07-15T03:18:34.729Z,101230
2014-07-15T03:18:52.963Z,101212
2014-07-15T03:19:11.182Z,101224
2014-07-15T03:19:28.793Z,101215
2014-07-15T03:19:47.012Z,101224
2014-07-15T03:20:04.606Z,101215
2014-07-15T03:20:21.575Z,101224
2014-07-15T03:20:39.812Z,101218
2014-07-15T03:20:58.046Z,101221
2014-07-15T03:21:16.265Z,101224
2014-07-15T03:21:34.002Z,101230
2014-07-15T03:21:51.595Z,101221
2014-07-15T03:22:09.830Z,101224
2014-07-15T03:22:26.798Z,101218
2014-07-15T03:22:45.034Z,101227
2014-07-15T03:23:02.628Z,101218
2014-07-15T03:23:20.221Z,101227
2014-07-15T03:23:38.442Z,101224
2014-07-15T03:23:56.083Z,101221
2014-07-15T03:24:13.645Z,101227
2014-07-15T03:24:31.255Z,101215
2014-07-15T03:24:49.475Z,101227
2014-07-15T03:25:07.694Z,101227
2014-07-15T03:25:25.288Z,101227
2014-07-15T03:25:42.399Z,101224
2014-07-15T03:25:59.993Z,101221
2014-07-15T03:26:17.587Z,101229
2014-07-15T03:26:35.821Z,101224
2014-07-15T03:26:53.418Z,101229
2014-07-15T03:27:11.637Z,101221
2014-07-15T03:27:29.996Z,101221
2014-07-15T03:27:48.231Z,101218
2014-07-15T03:28:06.450Z,101218
2014-07-15T03:28:24.044Z,101224
2014-07-15T03:28:41.013Z,101218
2014-07-15T03:28:58.749Z,101230
2014-07-15T03:29:16.968Z,101233
2014-07-15T03:29:34.561Z,101221
2014-07-15T03:29:52.799Z,101221
2014-07-15T03:30:11.018Z,101224
2014-07-15T03:30:29.252Z,101227
2014-07-15T03:30:47.472Z,101233
2014-07-15T03:31:05.690Z,101224
2014-07-15T03:31:23.925Z,101230
2014-07-15T03:31:42.159Z,101227
2014-07-15T03:31:59.130Z,101230
2014-07-15T03:32:16.099Z,101227
2014-07-15T03:32:34.333Z,101224
2014-07-15T03:32:51.304Z,101233
2014-07-15T03:33:08.898Z,101224
2014-07-15T03:33:25.366Z,101233
2014-07-15T03:33:42.976Z,101227
2014-07-15T03:34:00.571Z,101233
2014-07-15T03:34:18.165Z,101233
2014-07-15T03:34:35.775Z,101227
2014-07-15T03:34:53.368Z,101227
2014-07-15T03:35:11.605Z,101227
2014-07-15T03:35:29.823Z,101227
2014-07-15T03:35:47.433Z,101230
2014-07-15T03:36:05.654Z,101239
2014-07-15T03:36:23.263Z,101230
2014-07-15T03:36:40.857Z,101236
2014-07-15T03:36:58.591Z,101227
2014-07-15T03:37:16.202Z,101239
2014-07-15T03:37:34.437Z,101230
2014-07-15T03:37:52.656Z,101233
2014-07-15T03:38:09.642Z,101230
2014-07-15T03:38:27.236Z,101230
2014-07-15T03:38:45.470Z,101236
2014-07-15T03:39:03.704Z,101233
2014-07-15T03:39:21.300Z,101233
2014-07-15T03:39:38.910Z,101236
2014-07-15T03:39:57.128Z,101230
2014-07-15T03:40:14.866Z,101236
2014-07-15T03:40:32.475Z,101230
2014-07-15T03:40:50.084Z,101238
2014-07-15T03:41:08.303Z,101232
2014-07-15T03:41:25.274Z,101224
2014-07-15T03:41:42.883Z,101224
2014-07-15T03:42:01.243Z,101232
2014-07-15T03:42:18.211Z,101227